Guin, Alabama
Current Conditions -  °F | °C
As of 9:42 AM on Monday 22 Dec 2014 (Local Time) from K1M4 Reporting Station
Haze Haze  
Wind Chill: 46°   Ceiling: 100
Heat Index: 48°   Visibility: 1.2mi
Dew Point: 48°   Wind: 5mph
Humidity: 100%   Direction: NA
Pressure: 29.91"   Gusts: NA
Location:  33.97°N, 87.91°W
Report Text: K1M4 221542Z AUTO VRB04KT 1 1/4SM BR OVC001 09/09 A2991 RMK AO2 $
Loading
Personal Weather Stations






























Interactive Weather Map New forecast layout! Learn more

10-Day Weather Forecast

Advertisements
Track Severe Weather on mobile